createdAt,value
2023-03-02T00:01:39.127Z,99.90
2023-03-02T00:04:08.330Z,99.90
2023-03-02T00:06:36.421Z,99.90
2023-03-02T00:09:05.118Z,99.90
2023-03-02T00:11:32.842Z,99.90
2023-03-02T00:14:00.005Z,99.90
2023-03-02T00:16:26.956Z,99.90
2023-03-02T00:18:54.005Z,99.90
2023-03-02T00:21:21.065Z,99.90
2023-03-02T00:23:48.473Z,99.90
2023-03-02T00:26:15.496Z,99.90
2023-03-02T00:28:42.933Z,99.90
2023-03-02T00:31:09.970Z,99.90
2023-03-02T00:33:37.521Z,99.90
2023-03-02T00:36:04.850Z,99.90
2023-03-02T00:38:31.826Z,99.90
2023-03-02T00:40:59.668Z,99.90
2023-03-02T00:43:28.298Z,99.90
2023-03-02T00:45:55.688Z,99.90
2023-03-02T00:48:23.135Z,99.90
2023-03-02T00:50:50.115Z,99.90
2023-03-02T00:53:18.444Z,99.90
2023-03-02T00:55:53.030Z,99.90
2023-03-02T00:58:21.501Z,99.90
2023-03-02T01:00:48.861Z,99.90
2023-03-02T01:03:15.906Z,99.90
2023-03-02T01:05:43.171Z,99.90
2023-03-02T01:08:10.224Z,99.90
2023-03-02T01:10:37.819Z,99.90
2023-03-02T01:13:06.165Z,99.90
2023-03-02T01:15:33.701Z,99.90
2023-03-02T01:18:01.197Z,99.90
2023-03-02T01:20:28.738Z,99.90
2023-03-02T01:22:55.983Z,99.90
2023-03-02T01:25:23.007Z,99.90
2023-03-02T01:27:49.976Z,99.90
2023-03-02T01:30:17.388Z,99.90
2023-03-02T01:32:44.348Z,99.90
2023-03-02T01:35:11.459Z,99.90
2023-03-02T01:37:38.417Z,99.90
2023-03-02T01:40:06.931Z,99.90
2023-03-02T01:42:45.642Z,99.90
2023-03-02T01:45:31.317Z,99.90
2023-03-02T01:47:58.277Z,99.90
2023-03-02T01:50:26.625Z,99.90
2023-03-02T01:52:54.514Z,99.90
2023-03-02T01:55:24.951Z,99.90
2023-03-02T01:57:53.841Z,99.90
2023-03-02T02:00:22.629Z,99.90
2023-03-02T02:02:49.917Z,99.90
2023-03-02T02:05:20.013Z,99.90
2023-03-02T02:07:47.081Z,99.90
2023-03-02T02:10:14.917Z,99.90
2023-03-02T02:12:42.133Z,99.90
2023-03-02T02:15:09.587Z,99.90
2023-03-02T02:17:36.697Z,99.90
2023-03-02T02:20:13.134Z,99.90
2023-03-02T02:22:40.067Z,99.90
2023-03-02T02:25:12.217Z,99.90
2023-03-02T02:27:39.217Z,99.90
2023-03-02T02:30:06.815Z,99.90
2023-03-02T02:32:36.536Z,99.90
2023-03-02T02:35:15.749Z,99.90
2023-03-02T02:37:45.159Z,99.90
2023-03-02T02:40:38.969Z,99.90
2023-03-02T02:43:06.520Z,99.90
2023-03-02T02:45:33.753Z,99.90
2023-03-02T02:48:00.840Z,99.90
2023-03-02T02:50:31.929Z,99.90
2023-03-02T02:53:19.919Z,99.90
2023-03-02T02:55:48.265Z,99.90
2023-03-02T02:58:26.201Z,99.90
2023-03-02T03:00:54.973Z,99.90
2023-03-02T03:03:30.961Z,99.90
2023-03-02T03:05:59.094Z,99.90
2023-03-02T03:08:44.474Z,99.90
2023-03-02T03:11:16.018Z,99.90
2023-03-02T03:13:43.957Z,99.90
2023-03-02T03:16:12.707Z,99.90
2023-03-02T03:18:42.657Z,99.90
2023-03-02T03:21:09.647Z,99.90
2023-03-02T03:23:38.436Z,99.90
2023-03-02T03:26:06.127Z,99.90
2023-03-02T03:28:33.710Z,99.90
2023-03-02T03:31:03.777Z,99.90
2023-03-02T03:33:31.004Z,99.90
2023-03-02T03:35:58.038Z,99.90
2023-03-02T03:38:25.027Z,99.90
2023-03-02T03:40:51.981Z,99.90
2023-03-02T03:43:18.955Z,99.90
2023-03-02T03:45:46.099Z,99.90
2023-03-02T03:48:13.149Z,99.90
2023-03-02T03:50:40.250Z,99.90
2023-03-02T03:53:07.183Z,99.90
2023-03-02T03:55:34.439Z,99.90
2023-03-02T03:58:01.518Z,99.90
2023-03-02T04:00:28.702Z,99.90
2023-03-02T04:02:56.133Z,99.90
2023-03-02T04:05:23.982Z,99.90
2023-03-02T04:07:50.960Z,99.90
2023-03-02T04:10:18.012Z,99.90
2023-03-02T04:12:45.284Z,99.90
2023-03-02T04:15:14.166Z,99.90
2023-03-02T04:17:41.131Z,99.90
2023-03-02T04:20:09.707Z,99.90
2023-03-02T04:22:36.657Z,99.90
2023-03-02T04:25:05.314Z,99.90
2023-03-02T04:27:32.300Z,99.90
2023-03-02T04:29:59.275Z,99.90
2023-03-02T04:32:26.211Z,99.90
2023-03-02T04:34:53.221Z,99.90
2023-03-02T04:37:20.189Z,99.90
2023-03-02T04:39:51.333Z,99.90
2023-03-02T04:42:19.244Z,99.90
2023-03-02T04:44:46.323Z,99.90
2023-03-02T04:47:13.846Z,99.90
2023-03-02T04:49:41.112Z,99.90
2023-03-02T04:52:08.094Z,99.90
2023-03-02T04:54:35.042Z,99.90
2023-03-02T04:57:01.971Z,99.90
2023-03-02T04:59:31.742Z,99.90
2023-03-02T05:01:59.784Z,99.90
2023-03-02T05:04:27.302Z,99.90
2023-03-02T05:06:54.333Z,99.90
2023-03-02T05:09:27.261Z,99.90
2023-03-02T05:11:58.560Z,99.90
2023-03-02T05:14:25.853Z,99.90
2023-03-02T05:16:53.419Z,99.90
2023-03-02T05:19:20.287Z,99.90
2023-03-02T05:21:47.221Z,99.90
2023-03-02T05:24:14.450Z,99.90
2023-03-02T05:26:41.436Z,99.90
2023-03-02T05:29:08.488Z,99.90
2023-03-02T05:31:40.853Z,99.90
2023-03-02T05:34:08.950Z,99.90
2023-03-02T05:36:36.143Z,99.90
2023-03-02T05:39:04.087Z,99.90
2023-03-02T05:41:31.369Z,99.90
2023-03-02T05:43:58.569Z,99.90
2023-03-02T05:46:25.739Z,99.90
2023-03-02T05:48:53.032Z,99.90
2023-03-02T05:51:20.066Z,99.90
2023-03-02T05:53:47.069Z,99.90
2023-03-02T05:56:14.584Z,99.90
2023-03-02T05:58:41.701Z,99.90
2023-03-02T06:01:10.364Z,99.90
2023-03-02T06:03:37.362Z,99.90
2023-03-02T06:06:04.572Z,99.90
2023-03-02T06:08:31.988Z,99.90
2023-03-02T06:10:59.083Z,99.90
2023-03-02T06:13:25.981Z,99.90
2023-03-02T06:15:53.167Z,99.90
2023-03-02T06:18:20.205Z,99.90
2023-03-02T06:20:47.146Z,99.90
2023-03-02T06:23:14.269Z,99.90
2023-03-02T06:25:44.001Z,99.90
2023-03-02T06:28:10.943Z,99.90
2023-03-02T06:30:38.020Z,99.90
2023-03-02T06:33:05.132Z,99.90
2023-03-02T06:35:32.285Z,99.90
2023-03-02T06:37:59.238Z,99.90
2023-03-02T06:40:26.196Z,99.90
2023-03-02T06:42:53.132Z,99.90
2023-03-02T06:45:20.622Z,99.90
2023-03-02T06:47:47.629Z,99.90
2023-03-02T06:50:14.579Z,99.90
2023-03-02T06:52:41.520Z,99.90
2023-03-02T06:55:08.862Z,99.90
2023-03-02T06:57:35.800Z,99.90
2023-03-02T07:00:10.176Z,99.90
2023-03-02T07:02:37.507Z,99.90
2023-03-02T07:05:05.048Z,99.90
2023-03-02T07:07:32.088Z,99.90
2023-03-02T07:09:58.953Z,99.90
2023-03-02T07:12:25.870Z,99.90
2023-03-02T07:14:52.780Z,99.90
2023-03-02T07:17:19.754Z,99.90
2023-03-02T07:19:46.973Z,99.90
2023-03-02T07:22:14.180Z,99.90
2023-03-02T07:24:42.584Z,99.90
2023-03-02T07:27:10.466Z,99.90
2023-03-02T07:29:37.649Z,99.90
2023-03-02T07:32:04.763Z,99.90
2023-03-02T07:34:31.775Z,99.90
2023-03-02T07:36:58.788Z,99.90
2023-03-02T07:39:25.826Z,99.90
2023-03-02T07:41:52.772Z,99.90
2023-03-02T07:44:19.633Z,99.90
2023-03-02T07:46:46.803Z,99.90
2023-03-02T07:49:13.729Z,99.90
2023-03-02T07:51:40.678Z,99.90
2023-03-02T07:54:07.612Z,99.90
2023-03-02T07:56:34.588Z,99.90
2023-03-02T07:59:01.453Z,99.90
2023-03-02T08:01:28.349Z,99.90
2023-03-02T08:03:55.360Z,99.90
2023-03-02T08:06:22.474Z,99.90
2023-03-02T08:08:49.365Z,99.90
2023-03-02T08:11:17.430Z,99.90
2023-03-02T08:13:44.810Z,99.90
2023-03-02T08:16:12.874Z,99.90
2023-03-02T08:18:40.043Z,99.90
2023-03-02T08:21:14.907Z,99.90
2023-03-02T08:23:41.920Z,99.90
2023-03-02T08:26:12.451Z,99.90
2023-03-02T08:28:40.484Z,99.90
2023-03-02T08:31:08.039Z,99.90
2023-03-02T08:33:35.161Z,99.90
2023-03-02T08:36:03.903Z,99.90
2023-03-02T08:38:31.126Z,99.90
2023-03-02T08:40:58.042Z,99.90
2023-03-02T08:43:25.945Z,99.90
2023-03-02T08:45:53.635Z,99.90
2023-03-02T08:48:21.456Z,99.90
2023-03-02T08:50:58.978Z,99.90
2023-03-02T08:53:26.360Z,99.90
2023-03-02T08:55:53.364Z,99.90
2023-03-02T08:58:20.431Z,99.90
2023-03-02T09:00:47.620Z,99.90
2023-03-02T09:03:14.697Z,99.90
2023-03-02T09:05:41.630Z,99.90
2023-03-02T09:08:08.733Z,99.90
2023-03-02T09:10:35.887Z,99.90
2023-03-02T09:13:03.242Z,99.90
2023-03-02T09:15:30.170Z,99.90
2023-03-02T09:17:57.358Z,99.90
2023-03-02T09:20:24.510Z,99.90
2023-03-02T09:22:51.468Z,99.90
2023-03-02T09:25:18.912Z,99.90
2023-03-02T09:27:46.575Z,99.90
2023-03-02T09:30:14.359Z,99.90
2023-03-02T09:32:41.620Z,99.90
2023-03-02T09:35:09.068Z,99.90
2023-03-02T09:37:39.060Z,99.90
2023-03-02T09:40:12.490Z,99.90
2023-03-02T09:42:54.651Z,99.90
2023-03-02T09:45:26.052Z,99.90
2023-03-02T09:47:53.202Z,99.90
2023-03-02T09:50:23.198Z,99.90
2023-03-02T09:52:53.151Z,99.90
2023-03-02T09:55:22.586Z,99.90
2023-03-02T09:57:49.882Z,99.90
2023-03-02T10:00:23.872Z,99.90
2023-03-02T10:03:14.832Z,99.90
2023-03-02T10:05:44.910Z,99.90
2023-03-02T10:08:13.394Z,99.90
2023-03-02T10:10:44.291Z,99.90
2023-03-02T10:13:21.500Z,99.90
2023-03-02T10:15:54.593Z,99.90
2023-03-02T10:18:29.212Z,99.90
2023-03-02T10:20:59.189Z,99.90
2023-03-02T10:23:30.750Z,99.90
2023-03-02T10:26:01.283Z,99.90
2023-03-02T10:28:32.622Z,99.90
2023-03-02T10:31:06.534Z,99.90
2023-03-02T10:33:36.485Z,99.90
2023-03-02T10:36:05.887Z,99.90
2023-03-02T10:38:32.849Z,99.90
2023-03-02T10:41:04.189Z,99.90
2023-03-02T10:43:31.117Z,99.90
2023-03-02T10:45:58.910Z,99.90
2023-03-02T10:48:26.091Z,99.90
2023-03-02T10:50:54.011Z,99.90
2023-03-02T10:53:21.013Z,99.90
2023-03-02T10:55:48.996Z,99.90
2023-03-02T10:58:36.429Z,99.90
2023-03-02T11:01:07.453Z,99.90
2023-03-02T11:03:34.424Z,99.90
2023-03-02T11:06:16.992Z,99.90
2023-03-02T11:08:43.920Z,99.90
2023-03-02T11:11:24.361Z,99.90
2023-03-02T11:13:51.655Z,99.90
2023-03-02T11:16:18.591Z,99.90
2023-03-02T11:18:54.831Z,99.90
2023-03-02T11:21:24.825Z,99.90
2023-03-02T11:24:10.809Z,99.90
2023-03-02T11:26:39.586Z,99.90
2023-03-02T11:29:15.147Z,99.90
2023-03-02T11:31:48.508Z,99.90
2023-03-02T11:34:25.572Z,99.90
2023-03-02T11:36:55.322Z,99.90
2023-03-02T11:39:25.641Z,99.90
2023-03-02T11:41:54.065Z,99.90
2023-03-02T11:44:21.362Z,99.90
2023-03-02T11:46:54.015Z,99.90
2023-03-02T11:49:47.319Z,99.90
2023-03-02T11:52:21.835Z,99.90
2023-03-02T11:55:00.199Z,99.90
2023-03-02T11:57:45.584Z,99.90
2023-03-02T12:00:15.809Z,99.90
2023-03-02T12:02:42.749Z,99.90
2023-03-02T12:05:24.410Z,99.90
2023-03-02T12:08:00.421Z,99.90
2023-03-02T12:10:35.596Z,99.90
2023-03-02T12:13:14.756Z,99.90
2023-03-02T12:15:43.167Z,99.90
2023-03-02T12:18:22.588Z,99.40
2023-03-02T12:20:59.966Z,99.40
2023-03-02T12:23:27.024Z,99.10
2023-03-02T12:26:03.106Z,98.60
2023-03-02T12:28:35.419Z,99.20
2023-03-02T12:31:04.025Z,99.60
2023-03-02T12:33:31.086Z,99.40
2023-03-02T12:36:18.913Z,98.90
2023-03-02T12:38:52.809Z,99.60
2023-03-02T12:41:22.939Z,99.00
2023-03-02T12:43:58.590Z,99.20
2023-03-02T12:46:36.973Z,99.00
2023-03-02T12:49:05.533Z,98.20
2023-03-02T12:51:43.564Z,99.00
2023-03-02T12:54:14.826Z,98.60
2023-03-02T12:56:42.049Z,98.50
2023-03-02T12:59:19.757Z,98.60
2023-03-02T13:01:46.751Z,98.20
2023-03-02T13:04:23.757Z,96.80
2023-03-02T13:06:51.050Z,97.00
2023-03-02T13:09:20.555Z,97.10
2023-03-02T13:11:49.355Z,97.70
2023-03-02T13:14:18.220Z,97.20
2023-03-02T13:16:53.439Z,96.10
2023-03-02T13:19:20.523Z,96.40
2023-03-02T13:21:47.484Z,96.70
2023-03-02T13:24:26.556Z,95.10
2023-03-02T13:26:57.458Z,95.10
2023-03-02T13:29:26.724Z,95.90
2023-03-02T13:31:57.366Z,96.40
2023-03-02T13:34:28.594Z,94.80
2023-03-02T13:36:55.546Z,94.70
2023-03-02T13:39:25.388Z,94.60
2023-03-02T13:41:53.728Z,95.10
2023-03-02T13:44:23.326Z,95.30
2023-03-02T13:46:50.471Z,94.30
2023-03-02T13:49:33.881Z,94.50
2023-03-02T13:52:08.228Z,93.70
2023-03-02T13:54:36.832Z,94.50
2023-03-02T13:57:05.070Z,94.20
2023-03-02T13:59:35.224Z,93.80
2023-03-02T14:02:02.169Z,93.50
2023-03-02T14:04:29.156Z,93.20
2023-03-02T14:06:56.226Z,93.80
2023-03-02T14:09:23.331Z,93.20
2023-03-02T14:11:52.117Z,93.20
2023-03-02T14:14:20.876Z,93.30
2023-03-02T14:16:48.101Z,93.10
2023-03-02T14:19:18.688Z,92.90
2023-03-02T14:21:46.541Z,93.10
2023-03-02T14:24:13.578Z,93.10
2023-03-02T14:26:48.080Z,92.50
2023-03-02T14:29:23.024Z,93.20
2023-03-02T14:31:50.105Z,92.60
2023-03-02T14:34:17.615Z,92.40
2023-03-02T14:36:45.912Z,92.70
2023-03-02T14:39:19.611Z,92.20
2023-03-02T14:41:53.869Z,92.80
2023-03-02T14:44:21.800Z,92.10
2023-03-02T14:46:48.898Z,92.00
2023-03-02T14:49:15.899Z,92.10
2023-03-02T14:51:44.133Z,91.70
2023-03-02T14:54:15.915Z,92.00
2023-03-02T14:56:43.439Z,91.60
2023-03-02T14:59:13.924Z,92.00
2023-03-02T15:01:44.907Z,91.20
2023-03-02T15:04:11.956Z,91.70
2023-03-02T15:06:40.685Z,92.00
2023-03-02T15:09:08.623Z,91.80
2023-03-02T15:11:36.013Z,90.90
2023-03-02T15:14:03.326Z,91.30
2023-03-02T15:16:30.228Z,91.10
2023-03-02T15:18:58.811Z,91.20
2023-03-02T15:21:26.031Z,91.60
2023-03-02T15:23:53.089Z,90.70
2023-03-02T15:26:20.041Z,90.90
2023-03-02T15:28:49.894Z,90.40
2023-03-02T15:31:17.193Z,91.20
2023-03-02T15:33:45.730Z,90.80
2023-03-02T15:36:13.304Z,91.40
2023-03-02T15:38:40.454Z,91.20
2023-03-02T15:41:08.531Z,90.50
2023-03-02T15:43:35.565Z,90.10
2023-03-02T15:46:02.527Z,91.20
2023-03-02T15:48:30.162Z,90.90
2023-03-02T15:51:00.935Z,90.70
2023-03-02T15:53:28.707Z,90.20
2023-03-02T15:55:55.926Z,90.40
2023-03-02T15:58:23.159Z,89.60
2023-03-02T16:00:50.305Z,89.50
2023-03-02T16:03:19.499Z,89.80
2023-03-02T16:05:46.444Z,90.40
2023-03-02T16:08:13.398Z,90.60
2023-03-02T16:10:43.016Z,89.30
2023-03-02T16:13:10.498Z,89.10
2023-03-02T16:15:40.270Z,90.00
2023-03-02T16:18:11.268Z,88.80
2023-03-02T16:20:39.106Z,90.00
2023-03-02T16:23:07.799Z,90.10
2023-03-02T16:25:40.045Z,89.70
2023-03-02T16:28:07.479Z,89.20
2023-03-02T16:30:35.463Z,88.80
2023-03-02T16:33:03.735Z,88.80
2023-03-02T16:35:31.387Z,88.80
2023-03-02T16:38:01.098Z,88.80
2023-03-02T16:40:28.253Z,89.30
2023-03-02T16:42:55.193Z,89.70
2023-03-02T16:45:23.073Z,89.60
2023-03-02T16:47:50.635Z,89.80
2023-03-02T16:50:18.477Z,89.80
2023-03-02T16:52:45.468Z,89.90
2023-03-02T16:55:14.781Z,90.00
2023-03-02T16:57:42.173Z,90.40
2023-03-02T17:00:10.158Z,90.50
2023-03-02T17:02:37.124Z,90.60
2023-03-02T17:05:04.318Z,90.70
2023-03-02T17:07:31.268Z,90.90
2023-03-02T17:09:58.485Z,91.50
2023-03-02T17:12:25.992Z,91.30
2023-03-02T17:14:52.888Z,91.40
2023-03-02T17:17:19.783Z,91.80
2023-03-02T17:19:46.672Z,91.60
2023-03-02T17:22:14.406Z,91.90
2023-03-02T17:24:41.547Z,92.10
2023-03-02T17:27:23.789Z,92.40
2023-03-02T17:29:52.326Z,92.70
2023-03-02T17:32:19.313Z,92.70
2023-03-02T17:34:46.955Z,92.80
2023-03-02T17:37:14.276Z,93.20
2023-03-02T17:39:41.215Z,93.60
2023-03-02T17:42:08.089Z,94.40
2023-03-02T17:44:37.646Z,95.10
2023-03-02T17:47:06.585Z,95.50
2023-03-02T17:49:33.504Z,95.80
2023-03-02T17:52:00.458Z,96.30
2023-03-02T17:54:27.485Z,96.70
2023-03-02T17:56:54.365Z,97.00
2023-03-02T17:59:21.207Z,97.20
2023-03-02T18:01:48.145Z,97.30
2023-03-02T18:04:15.265Z,97.60
2023-03-02T18:06:42.175Z,97.80
2023-03-02T18:09:09.202Z,98.10
2023-03-02T18:11:36.234Z,98.10
2023-03-02T18:14:03.144Z,98.30
2023-03-02T18:16:30.159Z,98.20
2023-03-02T18:18:57.584Z,98.60
2023-03-02T18:21:24.608Z,99.20
2023-03-02T18:23:51.631Z,99.30
2023-03-02T18:26:18.562Z,99.20
2023-03-02T18:28:45.812Z,99.50
2023-03-02T18:31:16.013Z,99.90
2023-03-02T18:33:43.326Z,99.90
2023-03-02T18:36:10.660Z,99.90
2023-03-02T18:38:37.684Z,99.90
2023-03-02T18:41:08.196Z,99.90
2023-03-02T18:43:37.710Z,99.90
2023-03-02T18:46:10.467Z,99.90
2023-03-02T18:48:40.112Z,99.90
2023-03-02T18:51:07.054Z,99.90
2023-03-02T18:53:34.225Z,99.90
2023-03-02T18:56:01.194Z,99.90
2023-03-02T18:58:28.432Z,99.90
2023-03-02T19:00:56.595Z,99.90
2023-03-02T19:03:25.020Z,99.90
2023-03-02T19:05:53.415Z,99.90
2023-03-02T19:08:23.943Z,99.90
2023-03-02T19:10:55.093Z,99.90
2023-03-02T19:13:22.276Z,99.90
2023-03-02T19:15:49.245Z,99.90
2023-03-02T19:18:17.295Z,99.90
2023-03-02T19:20:48.088Z,99.90
2023-03-02T19:23:15.299Z,99.90
2023-03-02T19:25:43.220Z,99.90
2023-03-02T19:28:10.691Z,99.90
2023-03-02T19:30:37.769Z,99.90
2023-03-02T19:33:10.310Z,99.90
2023-03-02T19:35:40.372Z,99.90
2023-03-02T19:38:07.774Z,99.90
2023-03-02T19:40:35.488Z,99.90
2023-03-02T19:43:02.500Z,99.90
2023-03-02T19:45:32.446Z,99.90
2023-03-02T19:47:59.983Z,99.90
2023-03-02T19:50:27.820Z,99.90
2023-03-02T19:52:54.962Z,99.90
2023-03-02T19:55:22.482Z,99.90
2023-03-02T19:57:51.808Z,99.90
2023-03-02T20:00:19.571Z,99.90
2023-03-02T20:02:47.430Z,99.90
2023-03-02T20:05:14.907Z,99.90
2023-03-02T20:07:42.255Z,99.90
2023-03-02T20:10:10.020Z,99.90
2023-03-02T20:12:37.174Z,99.90
2023-03-02T20:15:05.365Z,99.90
2023-03-02T20:17:32.696Z,99.90
2023-03-02T20:20:01.413Z,99.90
2023-03-02T20:22:28.455Z,99.90
2023-03-02T20:24:55.298Z,99.90
2023-03-02T20:27:22.140Z,99.90
2023-03-02T20:29:49.254Z,99.90
2023-03-02T20:32:16.521Z,99.90
2023-03-02T20:34:43.527Z,99.90
2023-03-02T20:37:12.323Z,99.90
2023-03-02T20:39:40.105Z,99.90
2023-03-02T20:42:07.486Z,99.90
2023-03-02T20:44:34.546Z,99.90
2023-03-02T20:47:03.195Z,99.90
2023-03-02T20:49:31.368Z,99.90
2023-03-02T20:51:59.255Z,99.90
2023-03-02T20:54:27.956Z,99.90
2023-03-02T20:56:55.274Z,99.90
2023-03-02T20:59:22.942Z,99.90
2023-03-02T21:01:49.959Z,99.90
2023-03-02T21:04:17.045Z,99.90
2023-03-02T21:07:04.277Z,99.90
2023-03-02T21:09:31.181Z,99.90
2023-03-02T21:11:59.030Z,99.90
2023-03-02T21:14:27.956Z,99.90
2023-03-02T21:19:37.069Z,99.90
2023-03-02T21:22:04.174Z,99.90
2023-03-02T21:24:31.175Z,99.90
2023-03-02T21:26:58.466Z,99.90
2023-03-02T21:29:26.806Z,99.90
2023-03-02T21:31:54.192Z,99.90
2023-03-02T21:34:22.108Z,99.90
2023-03-02T21:36:53.437Z,99.90
2023-03-02T21:39:23.733Z,99.90
2023-03-02T21:41:51.294Z,99.90
2023-03-02T21:44:18.280Z,99.90
2023-03-02T21:46:45.328Z,99.90
2023-03-02T21:49:16.410Z,99.90
2023-03-02T21:51:43.444Z,99.90
2023-03-02T21:54:33.730Z,99.90
2023-03-02T21:57:00.920Z,99.90
2023-03-02T21:59:30.946Z,99.90
2023-03-02T22:01:57.957Z,99.90
2023-03-02T22:04:25.536Z,99.90
2023-03-02T22:06:52.530Z,99.90
2023-03-02T22:09:19.598Z,99.90
2023-03-02T22:11:47.356Z,99.90
2023-03-02T22:14:15.437Z,99.90
2023-03-02T22:16:46.279Z,99.90
2023-03-02T22:19:32.364Z,99.90
2023-03-02T22:22:00.361Z,99.90
2023-03-02T22:24:29.254Z,99.90
2023-03-02T22:27:09.396Z,99.90
2023-03-02T22:29:41.177Z,99.90
2023-03-02T22:32:27.780Z,99.90
2023-03-02T22:34:55.960Z,99.90
2023-03-02T22:37:23.795Z,99.90
2023-03-02T22:39:53.703Z,99.90
2023-03-02T22:42:25.244Z,99.90
2023-03-02T22:45:15.043Z,99.90
2023-03-02T22:47:42.379Z,99.90
2023-03-02T22:50:27.326Z,99.90
2023-03-02T22:52:55.647Z,99.90
2023-03-02T22:55:31.678Z,99.90
2023-03-02T22:57:58.611Z,99.90
2023-03-02T23:00:37.665Z,99.90
2023-03-02T23:03:15.000Z,99.90
2023-03-02T23:05:43.022Z,99.90
2023-03-02T23:08:17.707Z,99.90
2023-03-02T23:10:46.383Z,99.90
2023-03-02T23:13:14.630Z,99.90
2023-03-02T23:15:41.777Z,99.90
2023-03-02T23:18:28.729Z,99.90
2023-03-02T23:20:55.720Z,99.90
2023-03-02T23:23:23.863Z,99.90
2023-03-02T23:25:50.893Z,99.90
2023-03-02T23:28:17.827Z,99.90
2023-03-02T23:30:45.614Z,99.90
2023-03-02T23:33:15.232Z,99.90
2023-03-02T23:35:42.348Z,99.90
2023-03-02T23:38:09.264Z,99.90
2023-03-02T23:40:36.262Z,99.90
2023-03-02T23:43:03.320Z,99.90
2023-03-02T23:45:30.235Z,99.90
2023-03-02T23:47:58.008Z,99.90
2023-03-02T23:50:24.936Z,99.90
2023-03-02T23:52:51.821Z,99.90
2023-03-02T23:55:18.760Z,99.90
2023-03-02T23:57:45.686Z,99.90
